Terminal Aerodrome Forecast
Issued by NWS

Current Version | Previous Version | Text Only | Print | Product List | Glossary Off
Versions: 1 2 3 4 5 6 7 8 9 10 11 12 13 14 15 16 17 18 19 20 21 22 23 24

000
FTUS41 KILN 161400 AAA
TAFLUK
TAF AMD
KLUK 161417Z 1614/1712 15008KT P6SM VCSH OVC022
      TEMPO 1617/1620 5SM -SHRA OVC018
     FM162000 19006KT 5SM -SHRA VCTS OVC025CB
     FM170300 VRB03KT 4SM BR OVC012=

USA.gov is the U.S. government's official web portal to all federal, state and local government web resources and services.